sensor_id;sensor_type;location;lat;lon;timestamp;temperature;humidity
50989;DHT22;37008;52.210;21.112;2023-06-10T00:02:07;16.30;99.90
50989;DHT22;37008;52.210;21.112;2023-06-10T00:04:33;16.20;99.90
50989;DHT22;37008;52.210;21.112;2023-06-10T00:06:59;16.20;99.90
50989;DHT22;37008;52.210;21.112;2023-06-10T00:09:25;16.20;99.90
50989;DHT22;37008;52.210;21.112;2023-06-10T00:11:52;16.10;99.90
50989;DHT22;37008;52.210;21.112;2023-06-10T00:14:17;16.10;99.90
50989;DHT22;37008;52.210;21.112;2023-06-10T00:16:43;16.10;99.90
50989;DHT22;37008;52.210;21.112;2023-06-10T00:19:11;16.20;99.90
50989;DHT22;37008;52.210;21.112;2023-06-10T00:21:39;16.20;99.90
50989;DHT22;37008;52.210;21.112;2023-06-10T00:24:10;16.20;99.90
50989;DHT22;37008;52.210;21.112;2023-06-10T00:26:37;16.20;99.90
50989;DHT22;37008;52.210;21.112;2023-06-10T00:29:03;16.20;99.90
50989;DHT22;37008;52.210;21.112;2023-06-10T00:31:29;16.20;99.90
50989;DHT22;37008;52.210;21.112;2023-06-10T00:33:55;16.10;99.90
50989;DHT22;37008;52.210;21.112;2023-06-10T00:36:21;16.10;99.90
50989;DHT22;37008;52.210;21.112;2023-06-10T00:38:46;16.00;99.90
50989;DHT22;37008;52.210;21.112;2023-06-10T00:41:12;16.00;99.90
50989;DHT22;37008;52.210;21.112;2023-06-10T00:43:38;15.90;99.90
50989;DHT22;37008;52.210;21.112;2023-06-10T00:46:03;15.90;99.90
50989;DHT22;37008;52.210;21.112;2023-06-10T00:48:29;15.90;99.90
50989;DHT22;37008;52.210;21.112;2023-06-10T00:50:55;15.80;99.90
50989;DHT22;37008;52.210;21.112;2023-06-10T00:53:22;15.80;99.90
50989;DHT22;37008;52.210;21.112;2023-06-10T00:55:48;15.80;99.90
50989;DHT22;37008;52.210;21.112;2023-06-10T00:58:14;15.80;99.90
50989;DHT22;37008;52.210;21.112;2023-06-10T01:00:41;15.80;99.90
50989;DHT22;37008;52.210;21.112;2023-06-10T01:03:06;15.80;99.90
50989;DHT22;37008;52.210;21.112;2023-06-10T01:05:34;15.90;99.90
50989;DHT22;37008;52.210;21.112;2023-06-10T01:08:09;15.90;99.40
50989;DHT22;37008;52.210;21.112;2023-06-10T01:10:42;16.00;97.40
50989;DHT22;37008;52.210;21.112;2023-06-10T01:13:11;16.00;96.70
50989;DHT22;37008;52.210;21.112;2023-06-10T01:15:40;16.00;95.60
50989;DHT22;37008;52.210;21.112;2023-06-10T01:18:07;15.90;94.70
50989;DHT22;37008;52.210;21.112;2023-06-10T01:20:36;15.80;94.10
50989;DHT22;37008;52.210;21.112;2023-06-10T01:23:06;15.90;94.00
50989;DHT22;37008;52.210;21.112;2023-06-10T01:25:32;15.80;93.70
50989;DHT22;37008;52.210;21.112;2023-06-10T01:28:21;15.80;92.70
50989;DHT22;37008;52.210;21.112;2023-06-10T01:33:52;15.70;92.00
50989;DHT22;37008;52.210;21.112;2023-06-10T01:36:19;15.60;90.90
50989;DHT22;37008;52.210;21.112;2023-06-10T01:38:48;15.60;90.70
50989;DHT22;37008;52.210;21.112;2023-06-10T01:41:17;15.60;90.60
50989;DHT22;37008;52.210;21.112;2023-06-10T01:43:44;15.60;89.50
50989;DHT22;37008;52.210;21.112;2023-06-10T01:46:10;15.60;87.70
50989;DHT22;37008;52.210;21.112;2023-06-10T01:48:37;15.50;86.00
50989;DHT22;37008;52.210;21.112;2023-06-10T01:51:04;15.50;85.50
50989;DHT22;37008;52.210;21.112;2023-06-10T01:53:29;15.50;83.60
50989;DHT22;37008;52.210;21.112;2023-06-10T01:55:55;15.60;82.40
50989;DHT22;37008;52.210;21.112;2023-06-10T01:58:21;15.60;82.70
50989;DHT22;37008;52.210;21.112;2023-06-10T02:00:46;15.50;81.80
50989;DHT22;37008;52.210;21.112;2023-06-10T02:03:12;15.50;81.90
50989;DHT22;37008;52.210;21.112;2023-06-10T02:05:38;15.50;82.40
50989;DHT22;37008;52.210;21.112;2023-06-10T02:08:04;15.40;83.30
50989;DHT22;37008;52.210;21.112;2023-06-10T02:10:30;15.30;83.90
50989;DHT22;37008;52.210;21.112;2023-06-10T02:12:55;15.20;85.20
50989;DHT22;37008;52.210;21.112;2023-06-10T02:15:21;15.20;85.30
50989;DHT22;37008;52.210;21.112;2023-06-10T02:17:46;15.10;85.10
50989;DHT22;37008;52.210;21.112;2023-06-10T02:20:14;15.10;83.90
50989;DHT22;37008;52.210;21.112;2023-06-10T02:22:40;15.10;83.10
50989;DHT22;37008;52.210;21.112;2023-06-10T02:25:06;15.00;83.10
50989;DHT22;37008;52.210;21.112;2023-06-10T02:27:31;15.00;83.40
50989;DHT22;37008;52.210;21.112;2023-06-10T02:29:57;14.90;82.90
50989;DHT22;37008;52.210;21.112;2023-06-10T02:32:23;14.90;82.50
50989;DHT22;37008;52.210;21.112;2023-06-10T02:34:49;14.90;83.80
50989;DHT22;37008;52.210;21.112;2023-06-10T02:37:15;14.90;82.60
50989;DHT22;37008;52.210;21.112;2023-06-10T02:39:41;14.90;83.00
50989;DHT22;37008;52.210;21.112;2023-06-10T02:42:07;14.90;82.50
50989;DHT22;37008;52.210;21.112;2023-06-10T02:44:32;14.90;82.50
50989;DHT22;37008;52.210;21.112;2023-06-10T02:46:58;14.90;82.90
50989;DHT22;37008;52.210;21.112;2023-06-10T02:49:23;14.80;83.00
50989;DHT22;37008;52.210;21.112;2023-06-10T02:51:50;14.80;83.60
50989;DHT22;37008;52.210;21.112;2023-06-10T02:54:19;14.90;83.70
50989;DHT22;37008;52.210;21.112;2023-06-10T02:56:45;14.90;83.70
50989;DHT22;37008;52.210;21.112;2023-06-10T02:59:11;15.00;83.50
50989;DHT22;37008;52.210;21.112;2023-06-10T03:01:36;15.00;84.10
50989;DHT22;37008;52.210;21.112;2023-06-10T03:04:04;15.00;83.80
50989;DHT22;37008;52.210;21.112;2023-06-10T03:06:30;15.00;84.10
50989;DHT22;37008;52.210;21.112;2023-06-10T03:08:56;15.10;84.20
50989;DHT22;37008;52.210;21.112;2023-06-10T03:11:21;15.30;83.90
50989;DHT22;37008;52.210;21.112;2023-06-10T03:13:48;15.40;82.50
50989;DHT22;37008;52.210;21.112;2023-06-10T03:16:13;15.50;81.90
50989;DHT22;37008;52.210;21.112;2023-06-10T03:18:39;15.50;82.20
50989;DHT22;37008;52.210;21.112;2023-06-10T03:21:05;15.50;82.00
50989;DHT22;37008;52.210;21.112;2023-06-10T03:23:30;15.60;82.10
50989;DHT22;37008;52.210;21.112;2023-06-10T03:25:56;15.60;82.00
50989;DHT22;37008;52.210;21.112;2023-06-10T03:28:21;15.60;81.90
50989;DHT22;37008;52.210;21.112;2023-06-10T03:30:48;15.60;82.00
50989;DHT22;37008;52.210;21.112;2023-06-10T03:33:13;15.60;81.50
50989;DHT22;37008;52.210;21.112;2023-06-10T03:35:39;15.70;81.30
50989;DHT22;37008;52.210;21.112;2023-06-10T03:38:05;15.80;80.90
50989;DHT22;37008;52.210;21.112;2023-06-10T03:40:31;15.90;80.70
50989;DHT22;37008;52.210;21.112;2023-06-10T03:42:57;16.00;80.70
50989;DHT22;37008;52.210;21.112;2023-06-10T03:45:23;16.10;80.50
50989;DHT22;37008;52.210;21.112;2023-06-10T03:47:49;16.20;79.60
50989;DHT22;37008;52.210;21.112;2023-06-10T03:50:16;16.30;79.10
50989;DHT22;37008;52.210;21.112;2023-06-10T03:52:41;16.40;78.40
50989;DHT22;37008;52.210;21.112;2023-06-10T03:55:07;16.60;77.90
50989;DHT22;37008;52.210;21.112;2023-06-10T03:57:33;16.70;77.40
50989;DHT22;37008;52.210;21.112;2023-06-10T03:59:59;16.80;76.30
50989;DHT22;37008;52.210;21.112;2023-06-10T04:02:24;16.90;76.80
50989;DHT22;37008;52.210;21.112;2023-06-10T04:04:50;17.10;77.40
50989;DHT22;37008;52.210;21.112;2023-06-10T04:07:16;17.20;77.50
50989;DHT22;37008;52.210;21.112;2023-06-10T04:09:44;17.30;76.50
50989;DHT22;37008;52.210;21.112;2023-06-10T04:12:09;17.30;76.60
50989;DHT22;37008;52.210;21.112;2023-06-10T04:14:36;17.20;77.10
50989;DHT22;37008;52.210;21.112;2023-06-10T04:17:04;17.20;77.00
50989;DHT22;37008;52.210;21.112;2023-06-10T04:19:32;17.10;75.90
50989;DHT22;37008;52.210;21.112;2023-06-10T04:21:58;17.10;75.80
50989;DHT22;37008;52.210;21.112;2023-06-10T04:24:23;17.10;76.30
50989;DHT22;37008;52.210;21.112;2023-06-10T04:26:49;17.10;75.20
50989;DHT22;37008;52.210;21.112;2023-06-10T04:29:15;17.10;75.70
50989;DHT22;37008;52.210;21.112;2023-06-10T04:31:40;17.10;76.00
50989;DHT22;37008;52.210;21.112;2023-06-10T04:34:06;17.10;75.90
50989;DHT22;37008;52.210;21.112;2023-06-10T04:36:33;17.20;76.40
50989;DHT22;37008;52.210;21.112;2023-06-10T04:38:58;17.20;75.70
50989;DHT22;37008;52.210;21.112;2023-06-10T04:41:24;17.30;75.80
50989;DHT22;37008;52.210;21.112;2023-06-10T04:43:51;17.30;75.60
50989;DHT22;37008;52.210;21.112;2023-06-10T04:46:16;17.40;75.50
50989;DHT22;37008;52.210;21.112;2023-06-10T04:48:42;17.40;75.40
50989;DHT22;37008;52.210;21.112;2023-06-10T04:51:08;17.40;74.90
50989;DHT22;37008;52.210;21.112;2023-06-10T04:53:33;17.50;74.40
50989;DHT22;37008;52.210;21.112;2023-06-10T04:55:59;17.50;74.20
50989;DHT22;37008;52.210;21.112;2023-06-10T04:58:24;17.50;74.70
50989;DHT22;37008;52.210;21.112;2023-06-10T05:00:50;17.60;74.60
50989;DHT22;37008;52.210;21.112;2023-06-10T05:03:15;17.60;73.80
50989;DHT22;37008;52.210;21.112;2023-06-10T05:05:41;17.60;73.80
50989;DHT22;37008;52.210;21.112;2023-06-10T05:08:06;17.70;73.60
50989;DHT22;37008;52.210;21.112;2023-06-10T05:10:32;17.80;74.30
50989;DHT22;37008;52.210;21.112;2023-06-10T05:12:59;17.90;73.60
50989;DHT22;37008;52.210;21.112;2023-06-10T05:15:25;18.00;73.30
50989;DHT22;37008;52.210;21.112;2023-06-10T05:17:50;18.10;73.20
50989;DHT22;37008;52.210;21.112;2023-06-10T05:20:17;18.10;72.20
50989;DHT22;37008;52.210;21.112;2023-06-10T05:22:43;18.20;71.90
50989;DHT22;37008;52.210;21.112;2023-06-10T05:25:09;18.30;71.60
50989;DHT22;37008;52.210;21.112;2023-06-10T05:27:35;18.30;71.70
50989;DHT22;37008;52.210;21.112;2023-06-10T05:30:02;18.30;70.60
50989;DHT22;37008;52.210;21.112;2023-06-10T05:32:28;18.40;70.90
50989;DHT22;37008;52.210;21.112;2023-06-10T05:34:54;18.30;70.80
50989;DHT22;37008;52.210;21.112;2023-06-10T05:37:20;18.30;71.40
50989;DHT22;37008;52.210;21.112;2023-06-10T05:39:45;18.30;71.60
50989;DHT22;37008;52.210;21.112;2023-06-10T05:42:11;18.30;71.70
50989;DHT22;37008;52.210;21.112;2023-06-10T05:44:36;18.40;71.80
50989;DHT22;37008;52.210;21.112;2023-06-10T05:47:02;18.40;71.70
50989;DHT22;37008;52.210;21.112;2023-06-10T05:49:28;18.40;71.50
50989;DHT22;37008;52.210;21.112;2023-06-10T05:51:54;18.50;71.60
50989;DHT22;37008;52.210;21.112;2023-06-10T05:54:21;18.50;71.20
50989;DHT22;37008;52.210;21.112;2023-06-10T05:56:47;18.50;71.40
50989;DHT22;37008;52.210;21.112;2023-06-10T05:59:12;18.50;71.40
50989;DHT22;37008;52.210;21.112;2023-06-10T06:01:38;18.50;71.60
50989;DHT22;37008;52.210;21.112;2023-06-10T06:04:03;18.60;71.80
50989;DHT22;37008;52.210;21.112;2023-06-10T06:06:29;18.60;71.50
50989;DHT22;37008;52.210;21.112;2023-06-10T06:08:55;18.70;71.60
50989;DHT22;37008;52.210;21.112;2023-06-10T06:11:20;18.80;72.10
50989;DHT22;37008;52.210;21.112;2023-06-10T06:13:46;18.90;71.90
50989;DHT22;37008;52.210;21.112;2023-06-10T06:16:13;19.10;71.60
50989;DHT22;37008;52.210;21.112;2023-06-10T06:18:39;19.20;70.10
50989;DHT22;37008;52.210;21.112;2023-06-10T06:21:04;19.30;69.90
50989;DHT22;37008;52.210;21.112;2023-06-10T06:23:30;19.40;69.10
50989;DHT22;37008;52.210;21.112;2023-06-10T06:25:56;19.40;68.90
50989;DHT22;37008;52.210;21.112;2023-06-10T06:28:21;19.50;68.50
50989;DHT22;37008;52.210;21.112;2023-06-10T06:30:48;19.70;67.90
50989;DHT22;37008;52.210;21.112;2023-06-10T06:33:13;19.70;67.90
50989;DHT22;37008;52.210;21.112;2023-06-10T06:35:39;19.80;68.00
50989;DHT22;37008;52.210;21.112;2023-06-10T06:38:05;19.90;66.80
50989;DHT22;37008;52.210;21.112;2023-06-10T06:40:31;19.90;66.40
50989;DHT22;37008;52.210;21.112;2023-06-10T06:42:56;19.90;65.70
50989;DHT22;37008;52.210;21.112;2023-06-10T06:45:22;19.90;66.20
50989;DHT22;37008;52.210;21.112;2023-06-10T06:47:47;20.10;66.80
50989;DHT22;37008;52.210;21.112;2023-06-10T06:50:13;20.20;67.20
50989;DHT22;37008;52.210;21.112;2023-06-10T06:52:39;20.30;66.50
50989;DHT22;37008;52.210;21.112;2023-06-10T06:55:05;20.40;65.50
50989;DHT22;37008;52.210;21.112;2023-06-10T06:57:31;20.50;64.70
50989;DHT22;37008;52.210;21.112;2023-06-10T06:59:56;20.50;64.40
50989;DHT22;37008;52.210;21.112;2023-06-10T07:02:22;20.60;64.00
50989;DHT22;37008;52.210;21.112;2023-06-10T07:04:47;20.60;63.50
50989;DHT22;37008;52.210;21.112;2023-06-10T07:07:15;20.60;63.50
50989;DHT22;37008;52.210;21.112;2023-06-10T07:09:40;20.70;64.00
50989;DHT22;37008;52.210;21.112;2023-06-10T07:12:06;20.80;63.20
50989;DHT22;37008;52.210;21.112;2023-06-10T07:14:32;20.80;63.20
50989;DHT22;37008;52.210;21.112;2023-06-10T07:16:58;20.90;62.90
50989;DHT22;37008;52.210;21.112;2023-06-10T07:19:23;20.90;62.60
50989;DHT22;37008;52.210;21.112;2023-06-10T07:21:49;20.90;62.10
50989;DHT22;37008;52.210;21.112;2023-06-10T07:24:14;20.90;61.70
50989;DHT22;37008;52.210;21.112;2023-06-10T07:26:40;21.00;62.00
50989;DHT22;37008;52.210;21.112;2023-06-10T07:29:05;21.00;62.20
50989;DHT22;37008;52.210;21.112;2023-06-10T07:31:31;21.00;61.40
50989;DHT22;37008;52.210;21.112;2023-06-10T07:33:56;21.00;62.10
50989;DHT22;37008;52.210;21.112;2023-06-10T07:36:22;21.10;61.90
50989;DHT22;37008;52.210;21.112;2023-06-10T07:38:48;21.20;61.90
50989;DHT22;37008;52.210;21.112;2023-06-10T07:41:13;21.30;61.70
50989;DHT22;37008;52.210;21.112;2023-06-10T07:43:39;21.40;60.80
50989;DHT22;37008;52.210;21.112;2023-06-10T07:46:05;21.40;60.40
50989;DHT22;37008;52.210;21.112;2023-06-10T07:48:31;21.50;60.20
50989;DHT22;37008;52.210;21.112;2023-06-10T07:50:56;21.60;60.20
50989;DHT22;37008;52.210;21.112;2023-06-10T07:53:22;21.70;59.50
50989;DHT22;37008;52.210;21.112;2023-06-10T07:55:47;21.80;59.40
50989;DHT22;37008;52.210;21.112;2023-06-10T07:58:13;21.90;58.70
50989;DHT22;37008;52.210;21.112;2023-06-10T08:00:39;22.00;58.50
50989;DHT22;37008;52.210;21.112;2023-06-10T08:03:04;22.00;57.90
50989;DHT22;37008;52.210;21.112;2023-06-10T08:05:30;21.90;58.20
50989;DHT22;37008;52.210;21.112;2023-06-10T08:07:56;21.90;58.20
50989;DHT22;37008;52.210;21.112;2023-06-10T08:10:21;21.90;58.00
50989;DHT22;37008;52.210;21.112;2023-06-10T08:12:47;21.90;58.20
50989;DHT22;37008;52.210;21.112;2023-06-10T08:15:12;21.90;58.10
50989;DHT22;37008;52.210;21.112;2023-06-10T08:17:38;22.00;58.40
50989;DHT22;37008;52.210;21.112;2023-06-10T08:20:05;22.20;58.10
50989;DHT22;37008;52.210;21.112;2023-06-10T08:22:31;22.30;56.80
50989;DHT22;37008;52.210;21.112;2023-06-10T08:24:57;22.30;56.70
50989;DHT22;37008;52.210;21.112;2023-06-10T08:27:22;22.30;57.00
50989;DHT22;37008;52.210;21.112;2023-06-10T08:29:48;22.40;55.90
50989;DHT22;37008;52.210;21.112;2023-06-10T08:32:13;22.40;56.20
50989;DHT22;37008;52.210;21.112;2023-06-10T08:34:39;22.50;55.60
50989;DHT22;37008;52.210;21.112;2023-06-10T08:37:05;22.50;55.80
50989;DHT22;37008;52.210;21.112;2023-06-10T08:39:30;22.40;55.60
50989;DHT22;37008;52.210;21.112;2023-06-10T08:44:54;22.30;54.90
50989;DHT22;37008;52.210;21.112;2023-06-10T08:47:22;22.20;55.20
50989;DHT22;37008;52.210;21.112;2023-06-10T08:49:48;22.20;53.60
50989;DHT22;37008;52.210;21.112;2023-06-10T08:52:15;22.20;53.40
50989;DHT22;37008;52.210;21.112;2023-06-10T08:54:46;22.20;53.80
50989;DHT22;37008;52.210;21.112;2023-06-10T08:57:14;22.20;53.60
50989;DHT22;37008;52.210;21.112;2023-06-10T08:59:41;22.40;53.10
50989;DHT22;37008;52.210;21.112;2023-06-10T09:02:07;22.60;52.10
50989;DHT22;37008;52.210;21.112;2023-06-10T09:04:34;22.60;50.40
50989;DHT22;37008;52.210;21.112;2023-06-10T09:07:00;22.60;50.60
50989;DHT22;37008;52.210;21.112;2023-06-10T09:09:28;22.70;49.90
50989;DHT22;37008;52.210;21.112;2023-06-10T09:11:55;22.70;49.80
50989;DHT22;37008;52.210;21.112;2023-06-10T09:14:21;22.80;50.30
50989;DHT22;37008;52.210;21.112;2023-06-10T09:16:47;22.80;50.40
50989;DHT22;37008;52.210;21.112;2023-06-10T09:19:15;22.90;49.30
50989;DHT22;37008;52.210;21.112;2023-06-10T09:21:41;22.90;49.00
50989;DHT22;37008;52.210;21.112;2023-06-10T09:24:07;22.80;48.80
50989;DHT22;37008;52.210;21.112;2023-06-10T09:26:32;22.80;49.00
50989;DHT22;37008;52.210;21.112;2023-06-10T09:29:05;22.80;48.00
50989;DHT22;37008;52.210;21.112;2023-06-10T09:31:34;22.80;48.70
50989;DHT22;37008;52.210;21.112;2023-06-10T09:34:12;22.70;47.90
50989;DHT22;37008;52.210;21.112;2023-06-10T09:36:38;22.70;48.50
50989;DHT22;37008;52.210;21.112;2023-06-10T09:39:05;22.70;49.80
50989;DHT22;37008;52.210;21.112;2023-06-10T09:41:42;22.70;49.90
50989;DHT22;37008;52.210;21.112;2023-06-10T09:44:18;22.80;49.00
50989;DHT22;37008;52.210;21.112;2023-06-10T09:46:50;22.70;49.30
50989;DHT22;37008;52.210;21.112;2023-06-10T09:49:18;22.80;49.30
50989;DHT22;37008;52.210;21.112;2023-06-10T09:51:54;22.80;48.10
50989;DHT22;37008;52.210;21.112;2023-06-10T09:54:20;22.90;47.80
50989;DHT22;37008;52.210;21.112;2023-06-10T09:56:48;23.00;45.90
50989;DHT22;37008;52.210;21.112;2023-06-10T09:59:14;22.90;44.80
50989;DHT22;37008;52.210;21.112;2023-06-10T10:01:40;22.90;44.00
50989;DHT22;37008;52.210;21.112;2023-06-10T10:04:05;22.90;44.70
50989;DHT22;37008;52.210;21.112;2023-06-10T10:06:31;22.90;45.10
50989;DHT22;37008;52.210;21.112;2023-06-10T10:08:57;22.90;46.00
50989;DHT22;37008;52.210;21.112;2023-06-10T10:11:23;22.90;46.50
50989;DHT22;37008;52.210;21.112;2023-06-10T10:13:50;22.90;46.20
50989;DHT22;37008;52.210;21.112;2023-06-10T10:16:29;22.90;45.70
50989;DHT22;37008;52.210;21.112;2023-06-10T10:18:56;23.00;45.60
50989;DHT22;37008;52.210;21.112;2023-06-10T10:21:26;23.00;46.50
50989;DHT22;37008;52.210;21.112;2023-06-10T10:26:21;23.20;46.50
50989;DHT22;37008;52.210;21.112;2023-06-10T10:29:07;23.20;45.70
50989;DHT22;37008;52.210;21.112;2023-06-10T10:31:36;23.30;46.10
50989;DHT22;37008;52.210;21.112;2023-06-10T10:34:07;23.50;45.40
50989;DHT22;37008;52.210;21.112;2023-06-10T10:36:34;23.60;45.30
50989;DHT22;37008;52.210;21.112;2023-06-10T10:39:01;23.60;45.50
50989;DHT22;37008;52.210;21.112;2023-06-10T10:41:30;23.60;43.90
50989;DHT22;37008;52.210;21.112;2023-06-10T10:43:56;23.50;43.50
50989;DHT22;37008;52.210;21.112;2023-06-10T10:46:22;23.50;44.30
50989;DHT22;37008;52.210;21.112;2023-06-10T10:48:53;23.50;44.70
50989;DHT22;37008;52.210;21.112;2023-06-10T10:51:19;23.50;44.70
50989;DHT22;37008;52.210;21.112;2023-06-10T10:54:14;23.50;45.10
50989;DHT22;37008;52.210;21.112;2023-06-10T11:05:04;23.60;38.10
50989;DHT22;37008;52.210;21.112;2023-06-10T11:07:34;23.60;38.80
50989;DHT22;37008;52.210;21.112;2023-06-10T11:12:40;23.80;38.70
50989;DHT22;37008;52.210;21.112;2023-06-10T11:15:06;23.80;39.00
50989;DHT22;37008;52.210;21.112;2023-06-10T11:17:31;23.90;39.00
50989;DHT22;37008;52.210;21.112;2023-06-10T11:19:58;24.00;38.70
50989;DHT22;37008;52.210;21.112;2023-06-10T11:22:24;24.10;39.90
50989;DHT22;37008;52.210;21.112;2023-06-10T11:24:50;24.20;41.00
50989;DHT22;37008;52.210;21.112;2023-06-10T11:27:23;24.20;41.30
50989;DHT22;37008;52.210;21.112;2023-06-10T11:30:18;24.10;43.80
50989;DHT22;37008;52.210;21.112;2023-06-10T11:32:45;24.10;45.50
50989;DHT22;37008;52.210;21.112;2023-06-10T11:35:17;24.10;45.80
50989;DHT22;37008;52.210;21.112;2023-06-10T11:37:43;24.10;45.50
50989;DHT22;37008;52.210;21.112;2023-06-10T11:40:09;24.10;46.30
50989;DHT22;37008;52.210;21.112;2023-06-10T11:42:40;24.20;47.10
50989;DHT22;37008;52.210;21.112;2023-06-10T11:45:06;24.30;46.80
50989;DHT22;37008;52.210;21.112;2023-06-10T11:47:33;24.20;45.80
50989;DHT22;37008;52.210;21.112;2023-06-10T11:49:59;24.20;45.00
50989;DHT22;37008;52.210;21.112;2023-06-10T11:52:29;24.20;45.50
50989;DHT22;37008;52.210;21.112;2023-06-10T11:54:57;24.30;47.00
50989;DHT22;37008;52.210;21.112;2023-06-10T11:57:23;24.30;46.80
50989;DHT22;37008;52.210;21.112;2023-06-10T11:59:48;24.40;46.80
50989;DHT22;37008;52.210;21.112;2023-06-10T12:02:19;24.40;46.70
50989;DHT22;37008;52.210;21.112;2023-06-10T12:04:45;24.40;47.20
50989;DHT22;37008;52.210;21.112;2023-06-10T12:07:17;24.60;47.70
50989;DHT22;37008;52.210;21.112;2023-06-10T12:09:44;24.70;48.70
50989;DHT22;37008;52.210;21.112;2023-06-10T12:12:09;24.90;47.50
50989;DHT22;37008;52.210;21.112;2023-06-10T12:14:55;24.90;47.70
50989;DHT22;37008;52.210;21.112;2023-06-10T12:19:57;25.10;45.80
50989;DHT22;37008;52.210;21.112;2023-06-10T12:22:23;25.10;46.50
50989;DHT22;37008;52.210;21.112;2023-06-10T12:25:04;25.20;46.80
50989;DHT22;37008;52.210;21.112;2023-06-10T12:27:30;25.40;46.30
50989;DHT22;37008;52.210;21.112;2023-06-10T12:29:57;25.40;46.10
50989;DHT22;37008;52.210;21.112;2023-06-10T12:32:41;25.50;46.40
50989;DHT22;37008;52.210;21.112;2023-06-10T12:35:09;25.40;46.80
50989;DHT22;37008;52.210;21.112;2023-06-10T12:37:35;25.30;47.10
50989;DHT22;37008;52.210;21.112;2023-06-10T12:40:03;25.00;47.00
50989;DHT22;37008;52.210;21.112;2023-06-10T12:42:30;24.80;47.40
50989;DHT22;37008;52.210;21.112;2023-06-10T12:44:57;24.60;47.90
50989;DHT22;37008;52.210;21.112;2023-06-10T12:47:33;24.70;48.30
50989;DHT22;37008;52.210;21.112;2023-06-10T12:50:01;24.90;48.20
50989;DHT22;37008;52.210;21.112;2023-06-10T12:52:27;25.00;48.00
50989;DHT22;37008;52.210;21.112;2023-06-10T12:54:53;25.20;47.80
50989;DHT22;37008;52.210;21.112;2023-06-10T12:57:20;25.40;46.30
50989;DHT22;37008;52.210;21.112;2023-06-10T12:59:46;25.50;46.90
50989;DHT22;37008;52.210;21.112;2023-06-10T13:02:17;25.70;47.90
50989;DHT22;37008;52.210;21.112;2023-06-10T13:04:44;25.80;46.40
50989;DHT22;37008;52.210;21.112;2023-06-10T13:07:10;25.60;45.80
50989;DHT22;37008;52.210;21.112;2023-06-10T13:09:36;25.60;46.90
50989;DHT22;37008;52.210;21.112;2023-06-10T13:12:02;25.60;47.20
50989;DHT22;37008;52.210;21.112;2023-06-10T13:14:28;25.70;47.40
50989;DHT22;37008;52.210;21.112;2023-06-10T13:16:54;25.90;47.30
50989;DHT22;37008;52.210;21.112;2023-06-10T13:19:20;26.00;47.50
50989;DHT22;37008;52.210;21.112;2023-06-10T13:21:47;26.00;47.70
50989;DHT22;37008;52.210;21.112;2023-06-10T13:24:13;25.90;46.50
50989;DHT22;37008;52.210;21.112;2023-06-10T13:26:39;25.60;45.40
50989;DHT22;37008;52.210;21.112;2023-06-10T13:29:04;25.50;46.20
50989;DHT22;37008;52.210;21.112;2023-06-10T13:31:30;25.60;47.00
50989;DHT22;37008;52.210;21.112;2023-06-10T13:33:57;25.90;47.20
50989;DHT22;37008;52.210;21.112;2023-06-10T13:36:23;26.10;47.40
50989;DHT22;37008;52.210;21.112;2023-06-10T13:38:49;26.00;46.70
50989;DHT22;37008;52.210;21.112;2023-06-10T13:41:15;25.70;46.10
50989;DHT22;37008;52.210;21.112;2023-06-10T13:43:40;25.40;46.70
50989;DHT22;37008;52.210;21.112;2023-06-10T13:46:06;25.20;47.80
50989;DHT22;37008;52.210;21.112;2023-06-10T13:48:31;25.10;49.00
50989;DHT22;37008;52.210;21.112;2023-06-10T13:50:57;25.00;50.00
50989;DHT22;37008;52.210;21.112;2023-06-10T13:53:23;25.70;49.00
50989;DHT22;37008;52.210;21.112;2023-06-10T13:55:48;26.70;46.90
50989;DHT22;37008;52.210;21.112;2023-06-10T13:58:14;27.70;45.10
50989;DHT22;37008;52.210;21.112;2023-06-10T14:00:39;28.60;43.20
50989;DHT22;37008;52.210;21.112;2023-06-10T14:03:05;29.30;42.30
50989;DHT22;37008;52.210;21.112;2023-06-10T14:05:31;30.00;41.60
50989;DHT22;37008;52.210;21.112;2023-06-10T14:07:57;30.50;40.10
50989;DHT22;37008;52.210;21.112;2023-06-10T14:10:22;30.50;38.90
50989;DHT22;37008;52.210;21.112;2023-06-10T14:12:48;29.70;40.00
50989;DHT22;37008;52.210;21.112;2023-06-10T14:15:14;29.20;41.30
50989;DHT22;37008;52.210;21.112;2023-06-10T14:17:40;29.00;41.80
50989;DHT22;37008;52.210;21.112;2023-06-10T14:20:06;29.50;40.90
50989;DHT22;37008;52.210;21.112;2023-06-10T14:22:31;29.80;39.60
50989;DHT22;37008;52.210;21.112;2023-06-10T14:24:57;30.30;39.00
50989;DHT22;37008;52.210;21.112;2023-06-10T14:27:22;30.80;38.10
50989;DHT22;37008;52.210;21.112;2023-06-10T14:29:48;31.20;37.70
50989;DHT22;37008;52.210;21.112;2023-06-10T14:32:13;31.30;37.00
50989;DHT22;37008;52.210;21.112;2023-06-10T14:34:39;30.50;37.80
50989;DHT22;37008;52.210;21.112;2023-06-10T14:37:05;29.60;38.70
50989;DHT22;37008;52.210;21.112;2023-06-10T14:39:33;28.70;38.70
50989;DHT22;37008;52.210;21.112;2023-06-10T14:41:58;27.80;39.60
50989;DHT22;37008;52.210;21.112;2023-06-10T14:44:24;27.50;40.50
50989;DHT22;37008;52.210;21.112;2023-06-10T14:46:49;28.30;40.50
50989;DHT22;37008;52.210;21.112;2023-06-10T14:49:15;29.10;40.50
50989;DHT22;37008;52.210;21.112;2023-06-10T14:51:41;30.00;40.30
50989;DHT22;37008;52.210;21.112;2023-06-10T14:54:06;30.80;39.80
50989;DHT22;37008;52.210;21.112;2023-06-10T14:56:32;31.60;38.60
50989;DHT22;37008;52.210;21.112;2023-06-10T14:58:57;32.20;37.20
50989;DHT22;37008;52.210;21.112;2023-06-10T15:01:23;32.60;35.30
50989;DHT22;37008;52.210;21.112;2023-06-10T15:03:49;32.80;34.60
50989;DHT22;37008;52.210;21.112;2023-06-10T15:06:14;32.90;34.20
50989;DHT22;37008;52.210;21.112;2023-06-10T15:08:46;32.90;34.40
50989;DHT22;37008;52.210;21.112;2023-06-10T15:11:14;32.40;34.20
50989;DHT22;37008;52.210;21.112;2023-06-10T15:13:40;31.60;34.40
50989;DHT22;37008;52.210;21.112;2023-06-10T15:16:05;31.20;35.10
50989;DHT22;37008;52.210;21.112;2023-06-10T15:18:31;30.40;35.90
50989;DHT22;37008;52.210;21.112;2023-06-10T15:20:58;29.20;37.00
50989;DHT22;37008;52.210;21.112;2023-06-10T15:23:24;28.10;38.90
50989;DHT22;37008;52.210;21.112;2023-06-10T15:25:50;27.30;40.80
50989;DHT22;37008;52.210;21.112;2023-06-10T15:28:15;26.70;42.40
50989;DHT22;37008;52.210;21.112;2023-06-10T15:30:41;26.20;43.80
50989;DHT22;37008;52.210;21.112;2023-06-10T15:33:07;25.90;45.20
50989;DHT22;37008;52.210;21.112;2023-06-10T15:35:33;26.30;45.60